Time;durP1;ratioP1;P1;durP2;ratioP2;P2;SDS_P1;SDS_P2;PMS_P1;PMS_P2;Temp;Humidity;BMP_temperature;BMP_pressure;BME280_temperature;BME280_humidity;BME280_pressure;Samples;Min_cycle;Max_cycle;Signal;HPM_P1;HPM_P2
2021/03/31 00:00:54;;;;;;;6.55;3.13;;;;;;;;;;4951371;28;20482;-63
2021/03/31 00:03:21;;;;;;;17.27;3.70;;;;;;;;;;4954144;28;20058;-63
2021/03/31 00:05:46;;;;;;;13.32;3.38;;;;;;;;;;4953705;28;20551;-63
2021/03/31 00:08:11;;;;;;;6.28;3.85;;;;;;;;;;4953680;28;20102;-63
2021/03/31 00:10:39;;;;;;;29.15;4.88;;;;;;;;;;4954440;28;20032;-62
2021/03/31 00:13:04;;;;;;;11.18;3.28;;;;;;;;;;4954400;28;20019;-63
2021/03/31 00:15:31;;;;;;;16.10;4.72;;;;;;;;;;4954235;28;20555;-63
2021/03/31 00:17:56;;;;;;;7.35;3.40;;;;;;;;;;4947028;29;20046;-63
2021/03/31 00:20:21;;;;;;;10.38;3.75;;;;;;;;;;4948013;29;20466;-63
2021/03/31 00:22:47;;;;;;;13.02;2.55;;;;;;;;;;4943166;28;20382;-63
2021/03/31 00:25:12;;;;;;;4.45;2.42;;;;;;;;;;4943834;29;20086;-63
2021/03/31 00:27:38;;;;;;;2.85;1.75;;;;;;;;;;4940764;29;20149;-63
2021/03/31 00:30:05;;;;;;;4.65;3.05;;;;;;;;;;4954227;28;20343;-63
2021/03/31 00:32:30;;;;;;;11.13;4.20;;;;;;;;;;4946725;28;20106;-63
2021/03/31 00:34:55;;;;;;;7.10;3.50;;;;;;;;;;4950175;28;20514;-63
2021/03/31 00:37:20;;;;;;;5.38;2.53;;;;;;;;;;4953430;28;20019;-62
2021/03/31 00:39:46;;;;;;;7.82;3.72;;;;;;;;;;4953586;28;20152;-63
2021/03/31 00:42:11;;;;;;;8.32;2.60;;;;;;;;;;4948998;28;20055;-62
2021/03/31 00:44:36;;;;;;;5.22;2.08;;;;;;;;;;4952533;29;20043;-63
2021/03/31 00:47:02;;;;;;;3.28;2.05;;;;;;;;;;4953396;28;20023;-63
2021/03/31 00:49:27;;;;;;;14.20;2.50;;;;;;;;;;4950353;29;20372;-68
2021/03/31 00:51:53;;;;;;;10.13;2.83;;;;;;;;;;4950015;28;20051;-68
2021/03/31 00:54:18;;;;;;;11.20;3.85;;;;;;;;;;4947025;28;20023;-67
2021/03/31 00:56:43;;;;;;;8.60;2.47;;;;;;;;;;4953285;28;20114;-68
2021/03/31 00:59:09;;;;;;;11.65;3.65;;;;;;;;;;4953532;28;20086;-68
2021/03/31 01:01:35;;;;;;;6.43;2.78;;;;;;;;;;4952938;28;20062;-68
2021/03/31 01:04:00;;;;;;;15.52;2.40;;;;;;;;;;4948365;28;20413;-68
2021/03/31 01:06:26;;;;;;;3.35;2.15;;;;;;;;;;4953201;28;20031;-68
2021/03/31 01:08:51;;;;;;;5.53;3.13;;;;;;;;;;4950412;28;20106;-68
2021/03/31 01:11:24;;;;;;;7.90;2.15;;;;;;;;;;4948266;29;20042;-68
2021/03/31 01:13:59;;;;;;;5.90;2.58;;;;;;;;;;4953079;28;20098;-68
2021/03/31 01:16:50;;;;;;;4.32;2.65;;;;;;;;;;4952552;28;20379;-68
2021/03/31 01:19:22;;;;;;;3.95;2.30;;;;;;;;;;4948177;29;20031;-68
2021/03/31 01:21:47;;;;;;;6.68;4.55;;;;;;;;;;4952733;28;20035;-68
2021/03/31 01:24:31;;;;;;;7.35;3.90;;;;;;;;;;4953020;28;20482;-67
2021/03/31 01:27:02;;;;;;;12.38;6.30;;;;;;;;;;4952674;28;20023;-67
2021/03/31 01:29:27;;;;;;;8.60;4.05;;;;;;;;;;4942411;28;20051;-68
2021/03/31 01:32:15;;;;;;;8.10;3.38;;;;;;;;;;4944726;28;20023;-67
2021/03/31 01:34:44;;;;;;;6.43;3.10;;;;;;;;;;4952042;29;20098;-67
2021/03/31 01:37:16;;;;;;;5.85;3.85;;;;;;;;;;4951874;28;20035;-68
2021/03/31 01:39:41;;;;;;;6.20;4.13;;;;;;;;;;4952076;28;20032;-67
2021/03/31 01:42:07;;;;;;;4.93;3.13;;;;;;;;;;4947922;29;20035;-67
2021/03/31 01:44:33;;;;;;;10.32;4.00;;;;;;;;;;4952230;28;20042;-68
2021/03/31 01:46:58;;;;;;;8.82;3.00;;;;;;;;;;4952278;28;20023;-67
2021/03/31 01:49:25;;;;;;;6.43;3.58;;;;;;;;;;4946907;28;20490;-68
2021/03/31 01:52:01;;;;;;;10.77;3.53;;;;;;;;;;4951120;29;20034;-68
2021/03/31 01:54:27;;;;;;;9.30;3.65;;;;;;;;;;4952183;28;20107;-68
2021/03/31 01:56:52;;;;;;;3.75;1.88;;;;;;;;;;4952193;28;20110;-68
2021/03/31 01:59:19;;;;;;;4.57;3.38;;;;;;;;;;4952328;28;20024;-68
2021/03/31 02:01:46;;;;;;;10.00;2.80;;;;;;;;;;4948192;29;20035;-68
2021/03/31 02:04:11;;;;;;;3.72;2.47;;;;;;;;;;4948163;29;20078;-67
2021/03/31 02:06:37;;;;;;;3.95;2.45;;;;;;;;;;4948302;28;20471;-68
2021/03/31 02:09:04;;;;;;;4.60;3.08;;;;;;;;;;4952186;29;20074;-68
2021/03/31 02:11:30;;;;;;;2.28;1.92;;;;;;;;;;4952285;28;20043;-67
2021/03/31 02:13:56;;;;;;;7.70;3.67;;;;;;;;;;4952318;28;20019;-67
2021/03/31 02:16:22;;;;;;;6.68;3.33;;;;;;;;;;4952273;28;20036;-67
2021/03/31 02:18:47;;;;;;;10.70;2.90;;;;;;;;;;4947905;28;20031;-67
2021/03/31 02:21:13;;;;;;;4.28;3.17;;;;;;;;;;4952754;28;20102;-68
2021/03/31 02:23:39;;;;;;;4.00;2.22;;;;;;;;;;4941814;28;20059;-68
2021/03/31 02:26:04;;;;;;;7.95;2.90;;;;;;;;;;4951432;28;20122;-68
2021/03/31 02:28:30;;;;;;;5.72;3.28;;;;;;;;;;4948384;28;20020;-68
2021/03/31 02:30:56;;;;;;;5.72;3.17;;;;;;;;;;4951967;29;20031;-68
2021/03/31 02:33:22;;;;;;;4.95;3.47;;;;;;;;;;4946808;28;20027;-67
2021/03/31 02:35:47;;;;;;;7.15;4.30;;;;;;;;;;4952244;28;20035;-68
2021/03/31 02:38:13;;;;;;;7.75;4.55;;;;;;;;;;4946166;28;20374;-68
2021/03/31 02:40:40;;;;;;;7.15;3.83;;;;;;;;;;4948527;28;20074;-68
2021/03/31 02:43:06;;;;;;;4.88;2.97;;;;;;;;;;4948794;28;20071;-68
2021/03/31 02:45:32;;;;;;;7.82;4.22;;;;;;;;;;4950211;29;20387;-68
2021/03/31 02:48:02;;;;;;;11.55;5.03;;;;;;;;;;4951925;28;20072;-66
2021/03/31 02:50:29;;;;;;;7.13;3.95;;;;;;;;;;4951959;29;20358;-68
2021/03/31 02:52:54;;;;;;;9.25;2.97;;;;;;;;;;4951914;28;20047;-68
2021/03/31 02:55:23;;;;;;;6.07;2.45;;;;;;;;;;4946432;28;20074;-68
2021/03/31 02:57:49;;;;;;;4.63;2.40;;;;;;;;;;4941419;28;20039;-68
2021/03/31 03:00:15;;;;;;;5.70;3.15;;;;;;;;;;4952175;28;20027;-68
2021/03/31 03:02:41;;;;;;;7.55;3.67;;;;;;;;;;4946103;28;20094;-68
2021/03/31 03:05:07;;;;;;;7.55;3.92;;;;;;;;;;4945874;28;20031;-68
2021/03/31 03:07:33;;;;;;;8.88;2.85;;;;;;;;;;4948034;28;20036;-67
2021/03/31 03:09:59;;;;;;;4.97;3.47;;;;;;;;;;4949273;28;20035;-68
2021/03/31 03:12:25;;;;;;;11.00;2.83;;;;;;;;;;4944617;29;20083;-68
2021/03/31 03:14:51;;;;;;;4.10;2.85;;;;;;;;;;4950314;29;20023;-68
2021/03/31 03:17:17;;;;;;;4.22;2.65;;;;;;;;;;4951920;28;20476;-68
2021/03/31 03:19:42;;;;;;;2.60;1.88;;;;;;;;;;4953845;29;20043;-68
2021/03/31 03:22:08;;;;;;;5.35;3.22;;;;;;;;;;4951378;28;20047;-67
2021/03/31 03:24:35;;;;;;;4.53;3.55;;;;;;;;;;4953699;29;20364;-67
2021/03/31 03:27:00;;;;;;;13.00;4.85;;;;;;;;;;4949849;28;20043;-62
2021/03/31 03:29:26;;;;;;;8.35;2.95;;;;;;;;;;4955145;28;20098;-69
2021/03/31 03:31:52;;;;;;;9.68;4.57;;;;;;;;;;4943177;28;20057;-69
2021/03/31 03:34:17;;;;;;;5.78;3.17;;;;;;;;;;4943287;29;20023;-69
2021/03/31 03:36:43;;;;;;;5.05;3.15;;;;;;;;;;4954319;29;20078;-69
2021/03/31 03:39:09;;;;;;;5.00;3.65;;;;;;;;;;4944290;28;20086;-69
2021/03/31 03:41:34;;;;;;;19.08;3.80;;;;;;;;;;4951213;28;20019;-68
2021/03/31 03:43:59;;;;;;;5.13;3.40;;;;;;;;;;4947729;28;20471;-69
2021/03/31 03:46:30;;;;;;;15.20;4.80;;;;;;;;;;4953091;28;20083;-69
2021/03/31 03:48:59;;;;;;;6.35;3.47;;;;;;;;;;4947633;29;20058;-68
2021/03/31 03:51:24;;;;;;;6.15;3.53;;;;;;;;;;4950661;28;20031;-69
2021/03/31 03:53:51;;;;;;;7.75;2.58;;;;;;;;;;4954417;28;20438;-68
2021/03/31 03:56:16;;;;;;;6.88;4.85;;;;;;;;;;4955032;28;20082;-69
2021/03/31 03:58:41;;;;;;;6.30;3.53;;;;;;;;;;4947526;28;20032;-69
2021/03/31 04:01:06;;;;;;;4.05;2.72;;;;;;;;;;4954879;28;20157;-69
2021/03/31 04:03:32;;;;;;;9.15;3.78;;;;;;;;;;4948674;28;20054;-69
2021/03/31 04:05:57;;;;;;;9.82;4.53;;;;;;;;;;4941060;29;20039;-69
2021/03/31 04:08:22;;;;;;;3.90;2.63;;;;;;;;;;4944071;29;20019;-69
2021/03/31 04:10:50;;;;;;;5.75;3.70;;;;;;;;;;4950694;28;20115;-69
2021/03/31 04:13:16;;;;;;;6.55;5.13;;;;;;;;;;4953538;28;20493;-69
2021/03/31 04:15:43;;;;;;;6.05;3.35;;;;;;;;;;4953504;28;20035;-69
2021/03/31 04:18:09;;;;;;;4.35;3.42;;;;;;;;;;4940215;28;20027;-69
2021/03/31 04:20:37;;;;;;;4.35;3.92;;;;;;;;;;4951777;29;20036;-69
2021/03/31 04:23:02;;;;;;;8.02;4.15;;;;;;;;;;4950734;28;20042;-69
2021/03/31 04:25:27;;;;;;;4.90;3.70;;;;;;;;;;4945425;29;20385;-69
2021/03/31 04:27:54;;;;;;;12.05;3.97;;;;;;;;;;4944734;28;20020;-69
2021/03/31 04:30:20;;;;;;;6.88;4.07;;;;;;;;;;4946966;28;20313;-69
2021/03/31 04:32:47;;;;;;;5.22;3.85;;;;;;;;;;4947874;28;20024;-69
2021/03/31 04:35:14;;;;;;;8.75;3.92;;;;;;;;;;4949583;28;20387;-69
2021/03/31 04:37:39;;;;;;;5.65;3.33;;;;;;;;;;4949805;29;20466;-67
2021/03/31 04:40:08;;;;;;;5.20;3.70;;;;;;;;;;4954224;28;20027;-68
2021/03/31 04:42:33;;;;;;;7.82;4.07;;;;;;;;;;4946759;28;20099;-68
2021/03/31 04:44:59;;;;;;;4.93;3.00;;;;;;;;;;4953116;29;20126;-68
2021/03/31 04:47:24;;;;;;;7.18;3.45;;;;;;;;;;4952469;28;20027;-68
2021/03/31 04:49:49;;;;;;;7.45;2.25;;;;;;;;;;4953610;28;20071;-68
2021/03/31 04:52:15;;;;;;;7.50;3.42;;;;;;;;;;4953598;28;20016;-64
2021/03/31 04:54:40;;;;;;;12.65;4.18;;;;;;;;;;4953167;28;20033;-69
2021/03/31 04:57:05;;;;;;;21.65;4.97;;;;;;;;;;4950360;28;20090;-69
2021/03/31 04:59:30;;;;;;;6.00;3.33;;;;;;;;;;4948173;28;20035;-69
2021/03/31 05:01:56;;;;;;;17.30;8.98;;;;;;;;;;4941610;29;20051;-69
2021/03/31 05:04:21;;;;;;;5.25;3.25;;;;;;;;;;4943728;29;20385;-69
2021/03/31 05:06:46;;;;;;;9.07;4.32;;;;;;;;;;4943405;28;20455;-69
2021/03/31 05:09:12;;;;;;;6.45;3.95;;;;;;;;;;4951616;28;20066;-68
2021/03/31 05:11:37;;;;;;;7.47;4.45;;;;;;;;;;4949864;28;20140;-68
2021/03/31 05:14:03;;;;;;;9.13;4.75;;;;;;;;;;4953202;28;20031;-68
2021/03/31 05:16:28;;;;;;;8.43;4.63;;;;;;;;;;4949833;28;20027;-69
2021/03/31 05:18:53;;;;;;;17.27;5.22;;;;;;;;;;4944142;28;20050;-69
2021/03/31 05:21:19;;;;;;;7.85;4.43;;;;;;;;;;4927096;29;20478;-69
2021/03/31 05:23:44;;;;;;;5.78;3.97;;;;;;;;;;4949600;28;20117;-69
2021/03/31 05:26:10;;;;;;;13.10;5.55;;;;;;;;;;4952383;28;20455;-69
2021/03/31 05:28:35;;;;;;;10.23;4.65;;;;;;;;;;4938768;28;20036;-69
2021/03/31 05:31:00;;;;;;;6.38;4.00;;;;;;;;;;4950495;29;20031;-69
2021/03/31 05:33:26;;;;;;;8.10;3.08;;;;;;;;;;4944997;29;20414;-69
2021/03/31 05:35:51;;;;;;;11.48;4.80;;;;;;;;;;4942307;28;20035;-69
2021/03/31 05:38:16;;;;;;;6.40;4.38;;;;;;;;;;4948484;28;20027;-69
2021/03/31 05:40:42;;;;;;;6.95;4.00;;;;;;;;;;4948954;28;20123;-69
2021/03/31 05:43:07;;;;;;;6.50;3.88;;;;;;;;;;4948247;28;20024;-69
2021/03/31 05:45:33;;;;;;;5.68;5.10;;;;;;;;;;4950632;29;20031;-69
2021/03/31 05:47:58;;;;;;;6.68;3.67;;;;;;;;;;4949928;28;20074;-69
2021/03/31 05:50:24;;;;;;;4.50;2.92;;;;;;;;;;4939863;29;20036;-69
2021/03/31 05:52:49;;;;;;;9.68;3.08;;;;;;;;;;4942048;29;20036;-69
2021/03/31 05:55:16;;;;;;;12.38;4.28;;;;;;;;;;4951631;28;20027;-68
2021/03/31 05:57:42;;;;;;;5.05;3.00;;;;;;;;;;4948196;28;20016;-63
2021/03/31 06:00:14;;;;;;;3.92;2.85;;;;;;;;;;4947243;28;20126;-62
2021/03/31 06:02:41;;;;;;;6.05;4.28;;;;;;;;;;4950715;28;20047;-62
2021/03/31 06:05:07;;;;;;;6.50;4.18;;;;;;;;;;4944463;29;20058;-63
2021/03/31 06:07:32;;;;;;;5.38;4.10;;;;;;;;;;4950962;28;20022;-62
2021/03/31 06:10:16;;;;;;;16.30;2.72;;;;;;;;;;4943574;28;20032;-62
2021/03/31 06:12:47;;;;;;;10.52;4.65;;;;;;;;;;4940683;29;20347;-62
2021/03/31 06:15:14;;;;;;;11.10;4.05;;;;;;;;;;4940723;29;20028;-63
2021/03/31 06:17:44;;;;;;;7.72;3.45;;;;;;;;;;4939912;28;20059;-63
2021/03/31 06:20:09;;;;;;;9.93;2.75;;;;;;;;;;4941192;29;20031;-63
2021/03/31 06:22:49;;;;;;;6.70;4.18;;;;;;;;;;4947901;28;20066;-63
2021/03/31 06:25:23;;;;;;;20.48;3.58;;;;;;;;;;4943231;29;20470;-63
2021/03/31 06:27:57;;;;;;;3.95;2.28;;;;;;;;;;4951692;28;20106;-63
2021/03/31 06:30:23;;;;;;;5.80;3.10;;;;;;;;;;4951794;28;20034;-63
2021/03/31 06:32:49;;;;;;;11.00;4.00;;;;;;;;;;4945209;28;20028;-63
2021/03/31 06:35:19;;;;;;;5.07;3.50;;;;;;;;;;4952181;28;20206;-63
2021/03/31 06:37:45;;;;;;;11.98;3.58;;;;;;;;;;4950920;28;20038;-63
2021/03/31 06:40:25;;;;;;;17.75;7.60;;;;;;;;;;4943584;28;20035;-63
2021/03/31 06:42:51;;;;;;;20.70;8.60;;;;;;;;;;4948226;29;20427;-63
2021/03/31 06:45:19;;;;;;;28.10;6.85;;;;;;;;;;4943594;29;20170;-63
2021/03/31 06:48:01;;;;;;;11.73;6.43;;;;;;;;;;4942963;28;20022;-63
2021/03/31 06:50:29;;;;;;;12.63;7.30;;;;;;;;;;4949525;28;20110;-63
2021/03/31 06:52:58;;;;;;;10.73;6.28;;;;;;;;;;4952656;28;20019;-63
2021/03/31 06:55:24;;;;;;;21.38;6.07;;;;;;;;;;4955348;28;20513;-68
2021/03/31 06:57:53;;;;;;;11.00;7.65;;;;;;;;;;4952372;28;20146;-68
2021/03/31 07:00:24;;;;;;;8.80;6.20;;;;;;;;;;4949336;29;20035;-67
2021/03/31 07:02:51;;;;;;;9.45;7.22;;;;;;;;;;4953539;29;20055;-67
2021/03/31 07:05:16;;;;;;;17.75;8.30;;;;;;;;;;4944958;28;20497;-68
2021/03/31 07:07:42;;;;;;;11.23;7.85;;;;;;;;;;4946010;29;20027;-67
2021/03/31 07:10:07;;;;;;;13.55;7.28;;;;;;;;;;4955330;28;20704;-67
2021/03/31 07:12:49;;;;;;;27.17;10.15;;;;;;;;;;4944605;28;20019;-67
2021/03/31 07:15:16;;;;;;;12.18;8.65;;;;;;;;;;4945098;29;20075;-67
2021/03/31 07:17:44;;;;;;;16.65;7.72;;;;;;;;;;4954492;28;20015;-67
2021/03/31 07:20:10;;;;;;;45.40;8.25;;;;;;;;;;4954544;28;20493;-67
2021/03/31 07:22:35;;;;;;;21.40;9.32;;;;;;;;;;4953233;29;20154;-67
2021/03/31 07:25:01;;;;;;;24.73;8.45;;;;;;;;;;4955081;29;20031;-67
2021/03/31 07:27:28;;;;;;;10.18;6.90;;;;;;;;;;4954663;28;20027;-67
2021/03/31 07:30:10;;;;;;;17.27;10.68;;;;;;;;;;4953615;29;20039;-67
2021/03/31 07:32:44;;;;;;;14.10;8.15;;;;;;;;;;4954843;28;20015;-64
2021/03/31 07:35:10;;;;;;;16.45;10.30;;;;;;;;;;4955171;28;20050;-64
2021/03/31 07:37:36;;;;;;;9.02;6.18;;;;;;;;;;4954285;28;20455;-64
2021/03/31 07:40:04;;;;;;;30.13;8.90;;;;;;;;;;4950011;28;20027;-63
2021/03/31 07:42:30;;;;;;;10.73;8.40;;;;;;;;;;4951765;28;20027;-63
2021/03/31 07:44:56;;;;;;;19.52;10.60;;;;;;;;;;4948218;29;20098;-63
2021/03/31 07:47:22;;;;;;;19.40;11.30;;;;;;;;;;4950242;28;20019;-63
2021/03/31 07:49:48;;;;;;;20.08;12.82;;;;;;;;;;4951372;29;20514;-63
2021/03/31 07:52:14;;;;;;;15.70;14.07;;;;;;;;;;4950215;28;20016;-63
2021/03/31 07:54:39;;;;;;;14.15;10.98;;;;;;;;;;4952769;29;20039;-63
2021/03/31 07:57:33;;;;;;;9.70;6.93;;;;;;;;;;4944558;29;20035;-63
2021/03/31 07:59:58;;;;;;;10.65;7.95;;;;;;;;;;4947132;28;20062;-63
2021/03/31 08:02:24;;;;;;;14.70;10.85;;;;;;;;;;4950662;28;20534;-63
2021/03/31 08:04:49;;;;;;;32.67;14.45;;;;;;;;;;4953678;28;20034;-63
2021/03/31 08:07:21;;;;;;;27.67;15.27;;;;;;;;;;4946420;28;20030;-63
2021/03/31 08:09:46;;;;;;;45.05;28.52;;;;;;;;;;4949189;28;20369;-64
2021/03/31 08:12:26;;;;;;;20.52;14.02;;;;;;;;;;4954341;29;20015;-64
2021/03/31 08:14:51;;;;;;;38.65;23.05;;;;;;;;;;4942876;28;20101;-64
2021/03/31 08:17:17;;;;;;;34.97;23.88;;;;;;;;;;4953044;29;20466;-67
2021/03/31 08:19:43;;;;;;;45.47;30.00;;;;;;;;;;4948605;28;20038;-64
2021/03/31 08:22:23;;;;;;;47.47;31.63;;;;;;;;;;4943944;28;20109;-64
2021/03/31 08:24:52;;;;;;;41.67;26.45;;;;;;;;;;4944863;29;20031;-64
2021/03/31 08:27:18;;;;;;;22.90;16.50;;;;;;;;;;4947538;28;20051;-67
2021/03/31 08:29:45;;;;;;;23.92;13.98;;;;;;;;;;4949105;28;20058;-67
2021/03/31 08:32:11;;;;;;;12.63;10.98;;;;;;;;;;4943456;29;20023;-67
2021/03/31 08:34:37;;;;;;;17.17;9.65;;;;;;;;;;4953173;28;20106;-68
2021/03/31 08:37:06;;;;;;;19.15;9.95;;;;;;;;;;4941269;28;20101;-69
2021/03/31 08:39:32;;;;;;;26.10;9.77;;;;;;;;;;4952148;29;20431;-69
2021/03/31 08:42:00;;;;;;;8.23;3.80;;;;;;;;;;4935833;28;20060;-70
2021/03/31 08:44:36;;;;;;;3.58;1.80;;;;;;;;;;4943550;29;20028;-68
2021/03/31 08:47:21;;;;;;;7.50;3.92;;;;;;;;;;4953479;28;20023;-69
2021/03/31 08:49:47;;;;;;;6.43;3.28;;;;;;;;;;4941232;29;20051;-69
2021/03/31 08:52:14;;;;;;;7.57;2.28;;;;;;;;;;4939319;29;20020;-69
2021/03/31 08:54:42;;;;;;;9.35;3.53;;;;;;;;;;4940847;28;20510;-70
2021/03/31 08:57:12;;;;;;;6.80;3.08;;;;;;;;;;4936116;28;20723;-70
2021/03/31 08:59:39;;;;;;;9.90;2.45;;;;;;;;;;4939366;29;20176;-69
2021/03/31 09:02:04;;;;;;;11.93;4.40;;;;;;;;;;4947750;29;20050;-69
2021/03/31 09:04:31;;;;;;;7.25;4.50;;;;;;;;;;4942511;28;20517;-70
2021/03/31 09:06:57;;;;;;;3.13;1.98;;;;;;;;;;4951974;28;20023;-69
2021/03/31 09:09:23;;;;;;;8.65;3.30;;;;;;;;;;4942042;28;20466;-69
2021/03/31 09:11:56;;;;;;;10.25;2.17;;;;;;;;;;4952532;28;20023;-69
2021/03/31 09:14:23;;;;;;;10.90;2.33;;;;;;;;;;4939965;28;20106;-68
2021/03/31 09:16:59;;;;;;;8.20;2.70;;;;;;;;;;4951556;28;20359;-69
2021/03/31 09:19:25;;;;;;;2.78;2.10;;;;;;;;;;4951323;28;20031;-68
2021/03/31 09:21:51;;;;;;;5.38;2.28;;;;;;;;;;4944211;28;20097;-69
2021/03/31 09:24:16;;;;;;;4.82;2.08;;;;;;;;;;4939619;28;20352;-69
2021/03/31 09:27:02;;;;;;;2.53;2.15;;;;;;;;;;4942428;29;20470;-70
2021/03/31 09:29:28;;;;;;;3.47;2.03;;;;;;;;;;4937229;29;20039;-68
2021/03/31 09:31:54;;;;;;;9.23;3.95;;;;;;;;;;4941789;29;20019;-69
2021/03/31 09:34:19;;;;;;;5.13;1.98;;;;;;;;;;4943055;28;20129;-70
2021/03/31 09:37:01;;;;;;;7.50;4.75;;;;;;;;;;4943799;28;20019;-71
2021/03/31 09:39:38;;;;;;;5.97;5.20;;;;;;;;;;4941279;28;20027;-73
2021/03/31 09:42:03;;;;;;;4.05;2.97;;;;;;;;;;4949069;29;20023;-72
2021/03/31 09:44:30;;;;;;;3.67;2.17;;;;;;;;;;4946307;28;20402;-69
2021/03/31 09:46:55;;;;;;;16.10;3.95;;;;;;;;;;4947403;28;20019;-71
2021/03/31 09:49:21;;;;;;;14.18;4.18;;;;;;;;;;4938457;28;20579;-71
2021/03/31 09:51:47;;;;;;;14.45;4.35;;;;;;;;;;4947307;29;20702;-69
2021/03/31 09:54:12;;;;;;;4.25;3.25;;;;;;;;;;4952208;28;20034;-70
2021/03/31 09:56:38;;;;;;;6.07;3.28;;;;;;;;;;4951367;28;20047;-71
2021/03/31 09:59:03;;;;;;;6.38;3.28;;;;;;;;;;4950884;28;20019;-71
2021/03/31 10:01:29;;;;;;;3.90;2.78;;;;;;;;;;4950608;28;20114;-75
2021/03/31 10:03:55;;;;;;;15.90;5.10;;;;;;;;;;4946279;28;20040;-69
2021/03/31 10:06:22;;;;;;;14.02;4.25;;;;;;;;;;4949867;28;20027;-71
2021/03/31 10:08:48;;;;;;;16.75;4.45;;;;;;;;;;4946096;28;20019;-72
2021/03/31 10:11:33;;;;;;;8.40;2.17;;;;;;;;;;4948313;28;20495;-72
2021/03/31 10:14:01;;;;;;;8.65;2.47;;;;;;;;;;4940442;29;20020;-72
2021/03/31 10:16:31;;;;;;;4.95;2.20;;;;;;;;;;4948171;28;20039;-72
2021/03/31 10:18:56;;;;;;;7.53;2.93;;;;;;;;;;4952402;28;20062;-71
2021/03/31 10:21:28;;;;;;;6.03;3.05;;;;;;;;;;4946722;28;20455;-71
2021/03/31 10:23:54;;;;;;;4.78;2.75;;;;;;;;;;4952382;28;20027;-71
2021/03/31 10:26:24;;;;;;;7.25;2.92;;;;;;;;;;4950988;28;20035;-71
2021/03/31 10:28:50;;;;;;;4.95;1.88;;;;;;;;;;4952262;29;20023;-71
2021/03/31 10:31:44;;;;;;;4.15;1.75;;;;;;;;;;4956488;28;20031;-71
2021/03/31 10:34:10;;;;;;;13.23;5.20;;;;;;;;;;4954174;28;20042;-71
2021/03/31 10:50:32;;;;;;;3.08;1.52;;;;;;;;;;4947030;29;20047;-72
2021/03/31 10:53:00;;;;;;;2.95;2.25;;;;;;;;;;4946919;28;20058;-72
2021/03/31 10:55:25;;;;;;;9.05;3.20;;;;;;;;;;4943166;28;20087;-72
2021/03/31 10:57:51;;;;;;;3.20;2.35;;;;;;;;;;4943714;29;20887;-72
2021/03/31 11:00:16;;;;;;;10.27;3.15;;;;;;;;;;4951424;28;20553;-71
2021/03/31 11:02:41;;;;;;;5.00;2.70;;;;;;;;;;4949596;28;20043;-71
2021/03/31 11:05:07;;;;;;;4.88;2.53;;;;;;;;;;4952773;28;20494;-73
2021/03/31 11:07:32;;;;;;;5.13;2.67;;;;;;;;;;4945586;28;20023;-72
2021/03/31 11:09:58;;;;;;;8.80;5.75;;;;;;;;;;4944626;28;21088;-71
2021/03/31 11:12:23;;;;;;;6.43;2.38;;;;;;;;;;4946712;29;20027;-71
2021/03/31 11:14:48;;;;;;;5.50;3.45;;;;;;;;;;4951883;28;20027;-71
2021/03/31 11:17:21;;;;;;;6.38;3.63;;;;;;;;;;4945463;29;20122;-70
2021/03/31 11:21:01;;;;;;;8.52;2.28;;;;;;;;;;4942838;28;20121;-71
2021/03/31 11:28:07;;;;;;;7.07;2.55;;;;;;;;;;4948143;29;20023;-71
2021/03/31 11:30:32;;;;;;;7.22;3.25;;;;;;;;;;4950305;28;20031;-72
2021/03/31 11:32:57;;;;;;;7.05;3.10;;;;;;;;;;4944240;29;20171;-72
2021/03/31 11:35:23;;;;;;;6.53;1.95;;;;;;;;;;4942411;28;20039;-71
2021/03/31 11:37:48;;;;;;;4.88;2.30;;;;;;;;;;4938660;28;20780;-72
2021/03/31 11:40:13;;;;;;;3.47;2.45;;;;;;;;;;4944657;28;20031;-71
2021/03/31 11:42:38;;;;;;;11.38;1.63;;;;;;;;;;4946331;29;20538;-72
2021/03/31 11:45:04;;;;;;;7.05;2.08;;;;;;;;;;4941713;29;20042;-71
2021/03/31 11:47:29;;;;;;;6.55;2.53;;;;;;;;;;4945474;28;20031;-71
2021/03/31 11:49:55;;;;;;;10.82;3.20;;;;;;;;;;4938329;29;20041;-71
2021/03/31 11:52:21;;;;;;;3.50;1.58;;;;;;;;;;4937241;29;20440;-63
2021/03/31 11:54:47;;;;;;;4.10;2.60;;;;;;;;;;4944533;28;20027;-64
2021/03/31 11:57:12;;;;;;;11.20;2.90;;;;;;;;;;4946734;28;20023;-65
2021/03/31 11:59:37;;;;;;;5.28;1.25;;;;;;;;;;4950373;29;20035;-64
2021/03/31 12:02:03;;;;;;;6.82;3.05;;;;;;;;;;4947249;28;20036;-65
2021/03/31 12:04:28;;;;;;;10.55;3.67;;;;;;;;;;4950297;28;20058;-65
2021/03/31 12:06:53;;;;;;;4.95;4.10;;;;;;;;;;4933558;28;20184;-65
2021/03/31 12:09:19;;;;;;;7.03;3.22;;;;;;;;;;4950769;28;20118;-65
2021/03/31 12:11:44;;;;;;;3.53;2.22;;;;;;;;;;4935538;29;20042;-65
2021/03/31 12:14:09;;;;;;;13.40;4.95;;;;;;;;;;4941337;28;20098;-65
2021/03/31 12:16:35;;;;;;;8.38;2.58;;;;;;;;;;4937256;29;20042;-65
2021/03/31 12:19:00;;;;;;;9.25;3.78;;;;;;;;;;4933476;28;20055;-65
2021/03/31 12:21:25;;;;;;;2.92;2.20;;;;;;;;;;4934212;29;20032;-65
2021/03/31 12:23:51;;;;;;;5.70;3.22;;;;;;;;;;4933652;29;20027;-65
2021/03/31 12:26:16;;;;;;;3.75;2.05;;;;;;;;;;4934668;29;20023;-65
2021/03/31 12:28:47;;;;;;;5.72;2.33;;;;;;;;;;4934497;29;20458;-65
2021/03/31 12:31:13;;;;;;;5.97;3.15;;;;;;;;;;4932091;29;20399;-64
2021/03/31 12:33:38;;;;;;;4.22;2.28;;;;;;;;;;4934163;29;20028;-64
2021/03/31 12:36:04;;;;;;;5.47;1.95;;;;;;;;;;4932060;29;20627;-65
2021/03/31 12:38:29;;;;;;;7.07;2.10;;;;;;;;;;4933592;29;20036;-65
2021/03/31 12:40:55;;;;;;;5.75;1.92;;;;;;;;;;4934701;29;20035;-65
2021/03/31 12:43:20;;;;;;;7.50;2.33;;;;;;;;;;4934926;29;20060;-65
2021/03/31 12:45:46;;;;;;;3.78;2.17;;;;;;;;;;4936707;29;20043;-65
2021/03/31 12:48:11;;;;;;;6.57;2.40;;;;;;;;;;4934973;29;20439;-65
2021/03/31 12:50:37;;;;;;;4.15;1.92;;;;;;;;;;4935640;29;20028;-65
2021/03/31 12:53:06;;;;;;;2.97;1.52;;;;;;;;;;4936299;29;20448;-66
2021/03/31 12:55:38;;;;;;;11.95;4.50;;;;;;;;;;4934717;29;20030;-65
2021/03/31 12:58:07;;;;;;;4.18;2.95;;;;;;;;;;4947909;29;20630;-65
2021/03/31 13:00:33;;;;;;;6.70;2.83;;;;;;;;;;4941083;29;20353;-65
2021/03/31 13:02:58;;;;;;;5.03;3.50;;;;;;;;;;4939865;28;20047;-65
2021/03/31 13:05:23;;;;;;;5.32;2.65;;;;;;;;;;4945992;29;20435;-65
2021/03/31 13:07:49;;;;;;;9.45;4.32;;;;;;;;;;4952537;28;20019;-66
2021/03/31 13:10:14;;;;;;;8.15;3.45;;;;;;;;;;4952696;28;20031;-63
2021/03/31 13:25:48;;;;;;;3.67;2.08;;;;;;;;;;4946532;28;20064;-66
2021/03/31 13:28:34;;;;;;;4.03;2.50;;;;;;;;;;4943002;28;20015;-64
2021/03/31 13:31:24;;;;;;;3.00;1.52;;;;;;;;;;4942640;29;20266;-65
2021/03/31 13:33:54;;;;;;;3.13;1.40;;;;;;;;;;4944570;29;20050;-64
2021/03/31 13:36:25;;;;;;;4.32;1.88;;;;;;;;;;4942237;28;20031;-65
2021/03/31 13:41:16;;;;;;;15.25;2.50;;;;;;;;;;4946117;29;20114;-65
2021/03/31 13:43:42;;;;;;;1.75;0.75;;;;;;;;;;4943224;28;20030;-64
2021/03/31 13:46:07;;;;;;;2.22;1.45;;;;;;;;;;4944499;28;20027;-65
2021/03/31 13:48:41;;;;;;;7.88;2.53;;;;;;;;;;4944749;29;20102;-64
2021/03/31 13:51:09;;;;;;;11.45;2.13;;;;;;;;;;4942973;29;20110;-64
2021/03/31 13:53:35;;;;;;;3.97;2.28;;;;;;;;;;4944671;29;20468;-65
2021/03/31 13:56:04;;;;;;;2.42;1.38;;;;;;;;;;4941647;29;20027;-65
2021/03/31 13:58:29;;;;;;;4.70;2.80;;;;;;;;;;4946171;28;20027;-65
2021/03/31 14:00:54;;;;;;;5.93;1.17;;;;;;;;;;4952546;28;20523;-64
2021/03/31 14:03:20;;;;;;;4.28;2.55;;;;;;;;;;4951497;28;20407;-65
2021/03/31 14:05:46;;;;;;;8.40;2.25;;;;;;;;;;4951952;29;20063;-65
2021/03/31 14:08:11;;;;;;;5.55;2.00;;;;;;;;;;4952447;28;20023;-64
2021/03/31 14:10:36;;;;;;;8.02;2.60;;;;;;;;;;4951847;28;20023;-65
2021/03/31 14:13:02;;;;;;;7.35;1.90;;;;;;;;;;4950817;29;20055;-64
2021/03/31 14:15:28;;;;;;;6.63;2.53;;;;;;;;;;4945649;28;20459;-64
2021/03/31 14:17:53;;;;;;;2.95;1.70;;;;;;;;;;4946689;29;20471;-64
2021/03/31 14:20:19;;;;;;;6.72;2.08;;;;;;;;;;4952294;28;20027;-64
2021/03/31 14:22:45;;;;;;;6.78;1.63;;;;;;;;;;4950618;29;20027;-64
2021/03/31 14:25:11;;;;;;;5.13;3.03;;;;;;;;;;4950318;28;20379;-64
2021/03/31 14:27:37;;;;;;;3.92;1.80;;;;;;;;;;4951620;28;20019;-64
2021/03/31 14:30:08;;;;;;;3.00;1.75;;;;;;;;;;4952169;28;20062;-63
2021/03/31 14:32:33;;;;;;;;;;;;;;;;;;4951592;28;20023;-64
2021/03/31 14:34:58;;;;;;;2.90;1.45;;;;;;;;;;4949299;28;19934;-65
2021/03/31 14:37:23;;;;;;;3.30;1.65;;;;;;;;;;4941580;29;20034;-65
2021/03/31 14:39:49;;;;;;;4.05;1.55;;;;;;;;;;4942465;28;20031;-65
2021/03/31 14:42:14;;;;;;;1.65;0.80;;;;;;;;;;4941801;29;20046;-65
2021/03/31 14:44:39;;;;;;;6.72;2.78;;;;;;;;;;4942969;29;20062;-65
2021/03/31 14:47:05;;;;;;;9.23;2.67;;;;;;;;;;4940636;28;20466;-65
2021/03/31 14:49:31;;;;;;;7.85;2.15;;;;;;;;;;4943204;29;20040;-65
2021/03/31 14:59:52;;;;;;;6.85;2.55;;;;;;;;;;4943090;28;20463;-64
2021/03/31 15:02:18;;;;;;;3.92;2.03;;;;;;;;;;4943801;29;20039;-63
2021/03/31 15:04:43;;;;;;;8.65;2.75;;;;;;;;;;4943557;29;20037;-64
2021/03/31 15:07:09;;;;;;;9.48;3.72;;;;;;;;;;4943070;28;20079;-65
2021/03/31 15:09:35;;;;;;;4.97;2.35;;;;;;;;;;4947018;29;20454;-64
2021/03/31 15:12:01;;;;;;;5.97;2.10;;;;;;;;;;4950172;29;20023;-64
2021/03/31 15:14:27;;;;;;;5.25;2.38;;;;;;;;;;4953252;28;20375;-64
2021/03/31 15:16:52;;;;;;;3.13;1.15;;;;;;;;;;4955200;28;20459;-65
2021/03/31 15:22:17;;;;;;;12.98;5.43;;;;;;;;;;4934265;28;20044;-64
2021/03/31 15:24:43;;;;;;;9.57;3.15;;;;;;;;;;4954650;28;20053;-64